Time;durP1;ratioP1;P1;durP2;ratioP2;P2;SDS_P1;SDS_P2;PMS_P1;PMS_P2;Temp;Humidity;BMP_temperature;BMP_pressure;BME280_temperature;BME280_humidity;BME280_pressure;Samples;Min_cycle;Max_cycle;Signal;HPM_P1;HPM_P2
2023/01/14 00:01:22;;;;;;;16.80;3.53;;;7.90;99.90;;;;;;5060374;28;20577;-85
2023/01/14 00:03:48;;;;;;;19.47;3.80;;;7.90;99.90;;;;;;5062027;28;20230;-85
2023/01/14 00:06:17;;;;;;;14.80;3.20;;;7.90;99.90;;;;;;5060832;28;20176;-85
2023/01/14 00:08:43;;;;;;;13.67;3.13;;;7.90;99.90;;;;;;5059684;28;20175;-85
2023/01/14 00:11:11;;;;;;;17.33;3.80;;;7.90;99.90;;;;;;5060545;28;20294;-85
2023/01/14 00:13:38;;;;;;;16.40;3.43;;;7.90;99.90;;;;;;5065296;28;20176;-85
2023/01/14 00:16:05;;;;;;;21.50;4.33;;;7.90;99.90;;;;;;5064053;28;20185;-85
2023/01/14 00:18:33;;;;;;;22.40;4.00;;;7.90;99.90;;;;;;5063731;28;20525;-86
2023/01/14 00:21:01;;;;;;;19.00;3.70;;;7.90;99.90;;;;;;5063980;28;20317;-85
2023/01/14 00:23:28;;;;;;;20.53;3.30;;;7.90;99.90;;;;;;5063843;28;20200;-85
2023/01/14 00:25:59;;;;;;;20.37;3.53;;;7.90;99.90;;;;;;5064930;28;20164;-85
2023/01/14 00:28:24;;;;;;;30.00;4.33;;;7.80;99.90;;;;;;5065721;28;20160;-85
2023/01/14 00:30:50;;;;;;;24.77;4.37;;;7.80;99.90;;;;;;5064694;28;20278;-85
2023/01/14 00:33:15;;;;;;;24.30;4.20;;;7.90;99.90;;;;;;5063459;28;20271;-85
2023/01/14 00:35:41;;;;;;;25.43;4.37;;;7.90;99.90;;;;;;5063586;28;20266;-85
2023/01/14 00:38:06;;;;;;;24.77;3.93;;;7.90;99.90;;;;;;5064396;28;20172;-85
2023/01/14 00:40:32;;;;;;;19.17;3.73;;;7.90;99.90;;;;;;5063515;28;20199;-85
2023/01/14 00:42:58;;;;;;;19.27;3.73;;;7.80;99.90;;;;;;5064398;28;20187;-85
2023/01/14 00:45:24;;;;;;;23.13;3.43;;;7.80;99.90;;;;;;5062407;28;20202;-85
2023/01/14 00:47:49;;;;;;;19.97;3.47;;;7.80;99.90;;;;;;5063664;28;20176;-84
2023/01/14 00:50:15;;;;;;;19.50;3.57;;;7.80;99.90;;;;;;5063873;28;20183;-85
2023/01/14 00:52:40;;;;;;;19.80;4.00;;;7.80;99.90;;;;;;5064750;28;20180;-85
2023/01/14 00:55:06;;;;;;;21.90;5.10;;;7.70;99.90;;;;;;5064363;28;20231;-85
2023/01/14 00:57:32;;;;;;;16.37;3.60;;;7.70;99.90;;;;;;5062527;28;20218;-85
2023/01/14 00:59:57;;;;;;;20.33;4.00;;;7.70;99.90;;;;;;5064026;28;20278;-85
2023/01/14 01:02:23;;;;;;;17.90;3.17;;;7.70;99.90;;;;;;5064576;28;20244;-85
2023/01/14 01:04:48;;;;;;;17.70;3.43;;;7.60;99.90;;;;;;5064335;28;20266;-85
2023/01/14 01:07:14;;;;;;;19.43;3.93;;;7.60;99.90;;;;;;5064144;28;20182;-85
2023/01/14 01:09:40;;;;;;;22.10;3.90;;;7.60;99.90;;;;;;5062899;28;20187;-85
2023/01/14 01:12:05;;;;;;;24.93;3.87;;;7.60;99.90;;;;;;5063075;28;20748;-85
2023/01/14 01:14:31;;;;;;;17.57;3.80;;;7.70;99.90;;;;;;5065175;28;20290;-86
2023/01/14 01:16:56;;;;;;;28.50;4.33;;;7.50;99.90;;;;;;5063715;28;20176;-85
2023/01/14 01:19:22;;;;;;;18.03;3.90;;;7.50;99.90;;;;;;5065055;28;20186;-85
2023/01/14 01:21:47;;;;;;;18.97;3.70;;;7.50;99.90;;;;;;5063460;28;20215;-85
2023/01/14 01:24:13;;;;;;;20.13;3.80;;;7.50;99.90;;;;;;5063214;28;20172;-85
2023/01/14 01:26:38;;;;;;;18.27;3.50;;;7.40;99.90;;;;;;5065505;28;20167;-85
2023/01/14 01:29:04;;;;;;;20.90;3.30;;;7.40;99.90;;;;;;5065286;28;20250;-85
2023/01/14 01:31:30;;;;;;;16.67;3.03;;;7.40;99.90;;;;;;5063558;28;20226;-85
2023/01/14 01:33:56;;;;;;;22.77;4.07;;;7.40;99.90;;;;;;5066335;28;20172;-85
2023/01/14 01:36:27;;;;;;;18.73;3.47;;;7.30;99.90;;;;;;5064512;28;20227;-85
2023/01/14 01:38:53;;;;;;;24.83;4.03;;;7.30;99.90;;;;;;5064696;28;20183;-85
2023/01/14 01:41:22;;;;;;;25.97;4.17;;;7.30;99.90;;;;;;5063571;28;20192;-84
2023/01/14 01:44:00;;;;;;;17.30;3.70;;;7.20;99.90;;;;;;5064434;28;20171;-84
2023/01/14 01:46:27;;;;;;;29.97;4.13;;;7.20;99.90;;;;;;5066676;28;20168;-85
2023/01/14 01:48:53;;;;;;;16.70;3.57;;;7.20;99.90;;;;;;5064602;28;20217;-85
2023/01/14 01:51:24;;;;;;;23.50;4.03;;;7.20;99.90;;;;;;5065634;28;20235;-85
2023/01/14 01:53:52;;;;;;;18.67;4.20;;;7.10;99.90;;;;;;5073287;28;20148;-86
2023/01/14 01:56:22;;;;;;;16.83;3.87;;;7.10;99.90;;;;;;5079696;28;20163;-85
2023/01/14 01:58:49;;;;;;;17.07;3.03;;;7.10;99.90;;;;;;5078828;28;20564;-85
2023/01/14 02:01:15;;;;;;;25.90;4.10;;;7.10;99.90;;;;;;5065254;28;20245;-85
2023/01/14 02:03:47;;;;;;;13.93;3.60;;;7.10;99.90;;;;;;5062888;28;20179;-85
2023/01/14 02:06:14;;;;;;;25.03;3.83;;;7.00;99.90;;;;;;5064390;28;20172;-85
2023/01/14 02:08:44;;;;;;;24.23;3.90;;;7.00;99.90;;;;;;5063651;28;20167;-85
2023/01/14 02:11:27;;;;;;;19.07;3.53;;;7.00;99.90;;;;;;5063326;28;20214;-85
2023/01/14 02:14:10;;;;;;;23.77;3.90;;;7.00;99.90;;;;;;5063476;28;20631;-85
2023/01/14 02:17:00;;;;;;;20.37;3.80;;;6.90;99.90;;;;;;5062140;28;20160;-85
2023/01/14 02:19:41;;;;;;;19.93;3.63;;;6.90;99.90;;;;;;5062970;28;20615;-85
2023/01/14 02:22:29;;;;;;;17.73;3.50;;;6.90;99.90;;;;;;5063260;28;20210;-85
2023/01/14 02:25:16;;;;;;;12.80;2.93;;;6.80;99.90;;;;;;5063218;28;20176;-85
2023/01/14 02:28:02;;;;;;;15.90;4.63;;;6.80;99.90;;;;;;5062506;28;20174;-85
2023/01/14 02:30:56;;;;;;;18.40;3.33;;;6.80;99.90;;;;;;5064241;28;20194;-85
2023/01/14 02:33:39;;;;;;;22.37;4.47;;;6.70;99.90;;;;;;5063929;28;20171;-84
2023/01/14 02:36:12;;;;;;;25.87;3.93;;;6.70;99.90;;;;;;5063846;28;20194;-85
2023/01/14 02:45:33;;;;;;;21.07;3.73;;;6.70;99.90;;;;;;5065094;28;20158;-84
2023/01/14 02:48:01;;;;;;;23.10;3.33;;;6.60;99.90;;;;;;5063366;28;20182;-85
2023/01/14 02:50:28;;;;;;;19.10;3.50;;;6.60;99.90;;;;;;5064032;28;20195;-85
2023/01/14 02:52:54;;;;;;;26.93;4.57;;;6.60;99.90;;;;;;5064161;28;20187;-85
2023/01/14 02:55:37;;;;;;;21.70;3.47;;;6.60;99.90;;;;;;5062866;28;20183;-84
2023/01/14 02:58:27;;;;;;;23.97;3.90;;;6.40;99.90;;;;;;5064522;28;20263;-85
2023/01/14 03:00:52;;;;;;;19.60;3.90;;;6.50;99.90;;;;;;5062434;28;20210;-85
2023/01/14 03:03:45;;;;;;;19.93;3.10;;;6.50;99.90;;;;;;5062608;28;20207;-84
2023/01/14 03:06:22;;;;;;;25.63;3.73;;;6.50;99.90;;;;;;5063128;28;20164;-85
2023/01/14 03:08:53;;;;;;;24.33;3.77;;;6.50;99.90;;;;;;5064565;28;20156;-84
2023/01/14 03:11:20;;;;;;;24.40;4.20;;;6.50;99.90;;;;;;5062696;28;20757;-85
2023/01/14 03:13:49;;;;;;;17.20;3.03;;;6.50;99.90;;;;;;5064310;28;20180;-84
2023/01/14 03:16:30;;;;;;;20.97;4.17;;;6.50;99.90;;;;;;5062156;28;20180;-85
2023/01/14 03:19:02;;;;;;;16.27;2.93;;;6.50;99.90;;;;;;5064381;28;20631;-84
2023/01/14 03:21:35;;;;;;;22.23;3.63;;;6.50;99.90;;;;;;5061965;28;20226;-84
2023/01/14 03:24:13;;;;;;;22.83;3.63;;;6.60;99.90;;;;;;5061829;28;20240;-84
2023/01/14 03:26:41;;;;;;;15.80;3.20;;;6.60;99.90;;;;;;5062469;28;20172;-84
2023/01/14 03:29:11;;;;;;;17.83;3.30;;;6.60;99.90;;;;;;5062069;28;20172;-86
2023/01/14 03:31:42;;;;;;;16.20;3.47;;;6.60;99.90;;;;;;5061806;28;20690;-84
2023/01/14 03:34:13;;;;;;;26.53;3.47;;;7.10;99.90;;;;;;5062127;28;20205;-85
2023/01/14 03:36:41;;;;;;;18.70;3.57;;;6.60;99.90;;;;;;5062850;28;20174;-84
2023/01/14 03:39:23;;;;;;;18.00;3.27;;;6.60;99.90;;;;;;5063702;28;20742;-85
2023/01/14 03:44:49;;;;;;;21.23;3.60;;;6.60;99.90;;;;;;5063984;28;20159;-84
2023/01/14 03:47:15;;;;;;;17.03;3.17;;;6.60;99.90;;;;;;5066016;28;20228;-85
2023/01/14 03:49:41;;;;;;;19.27;3.37;;;6.70;99.90;;;;;;5067657;28;20171;-85
2023/01/14 03:52:15;;;;;;;21.13;3.97;;;6.70;99.90;;;;;;5066678;28;20270;-85
2023/01/14 03:54:49;;;;;;;28.10;3.27;;;6.70;99.90;;;;;;5067789;28;20526;-84
2023/01/14 03:57:25;;;;;;;19.90;3.57;;;6.70;99.90;;;;;;5067433;28;20178;-85
2023/01/14 04:00:07;;;;;;;13.37;3.03;;;6.70;99.90;;;;;;5065528;28;20172;-85
2023/01/14 04:02:34;;;;;;;22.43;2.97;;;6.70;99.90;;;;;;5066999;28;20191;-84
2023/01/14 04:05:00;;;;;;;16.10;3.40;;;6.70;99.90;;;;;;5065883;28;20175;-84
2023/01/14 04:07:26;;;;;;;15.60;3.47;;;6.70;99.90;;;;;;5066421;28;20178;-85
2023/01/14 04:09:52;;;;;;;22.47;3.30;;;6.70;99.90;;;;;;5065940;28;20227;-84
2023/01/14 04:12:17;;;;;;;26.80;4.47;;;6.70;99.90;;;;;;5066048;28;20199;-85
2023/01/14 04:17:27;;;;;;;16.10;3.10;;;6.70;99.90;;;;;;5066406;28;20601;-86
2023/01/14 04:19:53;;;;;;;18.43;2.90;;;6.70;99.90;;;;;;5066311;28;20180;-85
2023/01/14 04:22:18;;;;;;;15.23;2.57;;;6.70;99.90;;;;;;5064774;28;20211;-85
2023/01/14 04:24:44;;;;;;;14.67;3.00;;;6.70;99.90;;;;;;5065253;28;20203;-84
2023/01/14 04:27:09;;;;;;;16.73;3.00;;;6.70;99.90;;;;;;5064591;28;20175;-84
2023/01/14 04:29:35;;;;;;;15.57;3.20;;;6.60;99.90;;;;;;5064595;28;20184;-85
2023/01/14 04:32:01;;;;;;;20.33;3.33;;;6.60;99.90;;;;;;5065941;28;20605;-85
2023/01/14 04:34:26;;;;;;;27.53;3.57;;;6.70;99.90;;;;;;5064818;28;20191;-85
2023/01/14 04:36:52;;;;;;;16.27;2.53;;;6.60;99.90;;;;;;5064991;28;20175;-84
2023/01/14 04:39:17;;;;;;;22.40;3.83;;;6.60;99.90;;;;;;5065912;28;20278;-85
2023/01/14 04:44:27;;;;;;;15.00;2.53;;;6.60;99.90;;;;;;5066701;28;20163;-85
2023/01/14 04:46:52;;;;;;;18.60;3.37;;;6.60;99.90;;;;;;5066528;28;20172;-85
2023/01/14 04:49:18;;;;;;;24.83;2.90;;;6.60;99.90;;;;;;5065118;28;20174;-85
2023/01/14 04:51:43;;;;;;;12.77;2.53;;;6.60;99.90;;;;;;5065591;28;20231;-85
2023/01/14 04:54:09;;;;;;;15.80;2.93;;;6.60;99.90;;;;;;5066979;28;20210;-85
2023/01/14 04:56:35;;;;;;;17.63;2.80;;;6.60;99.90;;;;;;5070006;28;20180;-86
2023/01/14 04:59:02;;;;;;;14.40;3.03;;;6.60;99.90;;;;;;5080470;28;20179;-85
2023/01/14 05:01:28;;;;;;;15.63;3.37;;;6.60;99.90;;;;;;5077263;28;20210;-85
2023/01/14 05:03:58;;;;;;;19.90;3.27;;;6.60;99.90;;;;;;5063712;28;20191;-85
2023/01/14 05:06:27;;;;;;;14.53;3.53;;;6.60;99.90;;;;;;5063719;28;20179;-85
2023/01/14 05:08:52;;;;;;;15.07;3.37;;;6.60;99.90;;;;;;5066322;28;20196;-85
2023/01/14 05:11:18;;;;;;;23.10;3.47;;;6.60;99.90;;;;;;5066474;28;20197;-84
2023/01/14 05:13:43;;;;;;;19.30;4.03;;;6.50;99.90;;;;;;5067368;28;20172;-85
2023/01/14 05:16:09;;;;;;;11.50;2.47;;;6.60;99.90;;;;;;5067321;28;20182;-84
2023/01/14 05:18:35;;;;;;;22.43;4.13;;;6.50;99.90;;;;;;5064565;28;20254;-85
2023/01/14 05:21:01;;;;;;;17.97;2.40;;;6.50;99.90;;;;;;5065379;28;20305;-85
2023/01/14 05:23:26;;;;;;;17.57;3.23;;;6.50;99.90;;;;;;5064713;28;20253;-85
2023/01/14 05:25:52;;;;;;;9.93;2.80;;;6.50;99.90;;;;;;5064058;28;20243;-85
2023/01/14 05:28:19;;;;;;;26.57;3.13;;;6.50;99.90;;;;;;5065027;28;20172;-84
2023/01/14 05:30:45;;;;;;;19.27;3.33;;;6.50;99.90;;;;;;5067108;28;20188;-85
2023/01/14 05:33:11;;;;;;;16.90;2.57;;;6.50;99.90;;;;;;5066654;28;20179;-85
2023/01/14 05:35:37;;;;;;;11.13;3.00;;;6.50;99.90;;;;;;5067485;28;20179;-85
2023/01/14 05:38:04;;;;;;;14.77;3.30;;;6.50;99.90;;;;;;5066945;28;20179;-84
2023/01/14 05:40:30;;;;;;;22.07;2.83;;;6.50;99.90;;;;;;5066559;28;20578;-84
2023/01/14 05:45:48;;;;;;;20.30;3.40;;;6.50;99.90;;;;;;5070522;28;20166;-85
2023/01/14 05:48:15;;;;;;;21.90;2.67;;;6.50;99.90;;;;;;5078691;28;20608;-85
2023/01/14 05:50:40;;;;;;;14.30;3.13;;;6.50;99.90;;;;;;5078239;28;20210;-84
2023/01/14 05:53:07;;;;;;;16.40;3.37;;;6.50;99.90;;;;;;5072411;28;20182;-85
2023/01/14 05:55:35;;;;;;;17.13;3.07;;;6.40;99.90;;;;;;5064490;28;20182;-85
2023/01/14 05:58:03;;;;;;;15.63;2.67;;;6.50;99.90;;;;;;5062808;28;20171;-85
2023/01/14 06:08:31;;;;;;;14.23;2.50;;;6.50;99.90;;;;;;5064042;28;20174;-86
2023/01/14 06:10:57;;;;;;;22.67;2.90;;;6.50;99.90;;;;;;5064389;28;20214;-85
2023/01/14 06:13:23;;;;;;;21.20;3.43;;;6.50;99.90;;;;;;5062539;28;20619;-85
2023/01/14 06:15:52;;;;;;;13.20;2.80;;;6.50;99.90;;;;;;5062833;28;20228;-85
2023/01/14 06:18:22;;;;;;;12.80;2.40;;;6.50;99.90;;;;;;5064601;28;20203;-84
2023/01/14 06:20:49;;;;;;;13.17;2.07;;;6.50;99.90;;;;;;5066011;28;20230;-84
2023/01/14 06:23:15;;;;;;;12.17;2.30;;;6.50;99.90;;;;;;5063087;28;20289;-85
2023/01/14 06:25:46;;;;;;;16.77;2.43;;;6.50;99.90;;;;;;5062701;28;20201;-84
2023/01/14 06:28:12;;;;;;;17.33;2.63;;;6.50;99.90;;;;;;5062098;28;20174;-85
2023/01/14 06:30:37;;;;;;;10.13;2.60;;;6.50;99.90;;;;;;5062663;28;20191;-85
2023/01/14 06:33:03;;;;;;;12.13;2.87;;;6.60;99.90;;;;;;5059000;28;20313;-85
2023/01/14 06:35:29;;;;;;;13.23;2.20;;;6.60;99.90;;;;;;5056299;28;20175;-85
2023/01/14 06:37:54;;;;;;;13.43;2.33;;;6.60;99.90;;;;;;5056062;28;20686;-84
2023/01/14 06:40:20;;;;;;;12.93;2.93;;;6.60;99.90;;;;;;5055953;28;20700;-85
2023/01/14 06:42:45;;;;;;;9.87;2.00;;;6.70;99.90;;;;;;5056634;28;20199;-85
2023/01/14 06:45:12;;;;;;;11.30;2.07;;;6.70;99.90;;;;;;5056295;28;20182;-84
2023/01/14 06:47:38;;;;;;;12.57;3.47;;;6.70;99.90;;;;;;5057288;28;20274;-84
2023/01/14 06:50:05;;;;;;;15.77;2.83;;;6.70;99.90;;;;;;5058436;28;20214;-83
2023/01/14 06:52:30;;;;;;;11.47;2.80;;;6.80;99.90;;;;;;5056990;28;20209;-84
2023/01/14 06:54:56;;;;;;;9.50;2.53;;;6.80;99.90;;;;;;5058197;28;20258;-83
2023/01/14 06:57:22;;;;;;;21.10;2.80;;;6.90;99.90;;;;;;5056394;28;20175;-83
2023/01/14 06:59:47;;;;;;;16.63;2.27;;;7.00;99.90;;;;;;5056374;28;20263;-83
2023/01/14 07:02:13;;;;;;;11.87;2.63;;;6.90;99.90;;;;;;5056663;28;20233;-83
2023/01/14 07:04:39;;;;;;;14.50;2.37;;;6.90;99.90;;;;;;5056893;28;20176;-83
2023/01/14 07:07:07;;;;;;;12.10;2.50;;;6.90;99.90;;;;;;5058059;28;20233;-83
2023/01/14 07:09:33;;;;;;;12.73;3.03;;;6.90;99.90;;;;;;5057087;28;20178;-83
2023/01/14 07:11:58;;;;;;;8.33;2.10;;;6.90;99.90;;;;;;5057829;28;20199;-80
2023/01/14 07:14:24;;;;;;;13.70;2.37;;;7.00;99.90;;;;;;5060048;28;20453;-79
2023/01/14 07:16:49;;;;;;;15.33;2.40;;;7.00;99.90;;;;;;5059958;28;20176;-79
2023/01/14 07:19:15;;;;;;;10.90;2.33;;;6.90;99.90;;;;;;5061822;28;20219;-79
2023/01/14 07:21:41;;;;;;;8.87;2.30;;;6.90;99.90;;;;;;5057841;28;20219;-80
2023/01/14 07:24:06;;;;;;;7.10;1.90;;;6.90;99.90;;;;;;5061580;28;20186;-80
2023/01/14 07:26:32;;;;;;;11.23;2.23;;;6.90;99.90;;;;;;5060517;28;20179;-79
2023/01/14 07:28:58;;;;;;;16.03;3.17;;;6.90;99.90;;;;;;5061192;28;20179;-80
2023/01/14 07:31:24;;;;;;;15.27;2.43;;;6.90;99.90;;;;;;5061450;28;20217;-80
2023/01/14 07:33:49;;;;;;;7.50;1.93;;;6.90;99.90;;;;;;5060083;28;20179;-80
2023/01/14 07:36:15;;;;;;;10.57;2.37;;;6.80;99.90;;;;;;5061634;28;20532;-80
2023/01/14 07:38:41;;;;;;;14.23;2.33;;;6.80;99.90;;;;;;5062095;28;20244;-80
2023/01/14 07:41:11;;;;;;;9.93;2.70;;;6.80;99.90;;;;;;5061672;28;20199;-80
2023/01/14 07:43:36;;;;;;;13.30;2.33;;;6.80;99.90;;;;;;5059420;28;20199;-80
2023/01/14 07:46:02;;;;;;;11.57;2.63;;;6.80;99.90;;;;;;5062179;28;20239;-80
2023/01/14 07:48:31;;;;;;;7.50;2.00;;;6.80;99.90;;;;;;5062517;28;20184;-80
2023/01/14 07:50:56;;;;;;;10.07;2.10;;;6.80;99.90;;;;;;5062354;28;20216;-79
2023/01/14 07:53:22;;;;;;;25.93;2.60;;;6.80;99.90;;;;;;5060902;28;20266;-80
2023/01/14 07:55:47;;;;;;;14.13;2.10;;;6.80;99.90;;;;;;5061560;28;20262;-80
2023/01/14 07:58:14;;;;;;;13.33;2.30;;;6.70;99.90;;;;;;5060694;28;20235;-80
2023/01/14 08:00:40;;;;;;;18.07;2.37;;;6.70;99.90;;;;;;5061337;28;20540;-78
2023/01/14 08:03:06;;;;;;;18.80;2.40;;;6.70;99.90;;;;;;5059740;28;20246;-81
2023/01/14 08:05:34;;;;;;;10.03;3.23;;;6.70;99.90;;;;;;5059350;28;20202;-81
2023/01/14 08:07:59;;;;;;;13.40;2.33;;;6.70;99.90;;;;;;5061383;28;20651;-81
2023/01/14 08:10:25;;;;;;;8.20;1.93;;;6.70;99.90;;;;;;5059333;28;20337;-81
2023/01/14 08:12:51;;;;;;;8.00;1.80;;;6.70;99.90;;;;;;5061397;28;20171;-80
2023/01/14 08:15:17;;;;;;;9.53;2.80;;;6.70;99.90;;;;;;5057851;28;20184;-79
2023/01/14 08:17:42;;;;;;;17.80;2.23;;;6.70;99.90;;;;;;5059723;28;20205;-79
2023/01/14 08:20:09;;;;;;;14.47;2.73;;;6.70;99.90;;;;;;5056712;28;20201;-78
2023/01/14 08:22:35;;;;;;;15.27;2.43;;;6.70;99.90;;;;;;5061077;28;20188;-80
2023/01/14 08:25:00;;;;;;;8.67;2.13;;;6.70;99.90;;;;;;5062596;28;20175;-79
2023/01/14 08:27:27;;;;;;;15.23;2.40;;;6.70;99.90;;;;;;5060220;28;20203;-79
2023/01/14 08:29:53;;;;;;;15.40;2.87;;;6.70;99.90;;;;;;5061114;28;20588;-79
2023/01/14 08:32:18;;;;;;;10.87;2.30;;;6.70;99.90;;;;;;5061119;28;20210;-80
2023/01/14 08:34:44;;;;;;;9.77;1.90;;;6.70;99.90;;;;;;5066399;28;20176;-80
2023/01/14 08:37:09;;;;;;;13.40;2.13;;;6.70;99.90;;;;;;5065235;28;20184;-80
2023/01/14 08:39:35;;;;;;;10.57;2.20;;;6.70;99.90;;;;;;5064510;28;20669;-79
2023/01/14 08:42:00;;;;;;;12.87;2.47;;;6.70;99.90;;;;;;5063661;28;20207;-80
2023/01/14 08:44:26;;;;;;;10.47;2.17;;;6.70;99.90;;;;;;5066634;28;20171;-80
2023/01/14 08:46:51;;;;;;;15.70;3.10;;;6.80;99.90;;;;;;5064154;28;20273;-79
2023/01/14 08:49:17;;;;;;;18.83;2.53;;;6.80;99.90;;;;;;5065347;28;20188;-79
2023/01/14 08:51:43;;;;;;;19.33;2.93;;;6.80;99.90;;;;;;5065642;28;20203;-79
2023/01/14 08:54:08;;;;;;;9.23;2.27;;;6.80;99.90;;;;;;5065337;28;20191;-79
2023/01/14 08:56:34;;;;;;;14.17;2.67;;;6.80;99.90;;;;;;5065607;28;20172;-79
2023/01/14 08:59:01;;;;;;;13.53;2.60;;;6.80;99.90;;;;;;5065222;28;20182;-80
2023/01/14 09:01:26;;;;;;;19.10;2.37;;;6.80;99.90;;;;;;5065663;28;20203;-79
2023/01/14 09:03:53;;;;;;;12.17;2.57;;;6.80;99.90;;;;;;5066684;28;20183;-79
2023/01/14 09:06:18;;;;;;;11.73;2.07;;;6.90;99.90;;;;;;5069487;28;20186;-80
2023/01/14 09:17:10;;;;;;;6.47;1.50;;;6.90;99.90;;;;;;5064550;28;20185;-80
2023/01/14 09:19:46;;;;;;;11.90;2.90;;;6.90;99.90;;;;;;5069040;28;20172;-80
2023/01/14 09:22:15;;;;;;;14.70;2.40;;;7.00;99.90;;;;;;5063072;28;20703;-79
2023/01/14 09:24:40;;;;;;;7.83;1.83;;;7.00;99.90;;;;;;5060055;28;20175;-79
2023/01/14 09:27:06;;;;;;;11.30;2.03;;;7.00;99.90;;;;;;5063549;28;20163;-81
2023/01/14 09:29:32;;;;;;;9.40;2.07;;;7.00;99.90;;;;;;5062285;28;20171;-79
2023/01/14 09:31:57;;;;;;;8.80;2.17;;;7.00;99.90;;;;;;5063089;28;20218;-79
2023/01/14 09:34:23;;;;;;;13.77;2.70;;;7.10;99.90;;;;;;5064786;28;20183;-80
2023/01/14 09:36:49;;;;;;;11.23;1.70;;;7.10;99.90;;;;;;5072811;28;20179;-79
2023/01/14 09:39:15;;;;;;;9.50;2.40;;;7.10;99.90;;;;;;5063615;28;20659;-78
2023/01/14 09:41:58;;;;;;;8.03;2.07;;;7.10;99.90;;;;;;5062419;28;20199;-80
2023/01/14 09:44:25;;;;;;;6.87;1.83;;;7.10;99.90;;;;;;5056702;28;20168;-82
2023/01/14 09:46:51;;;;;;;11.90;2.30;;;7.20;99.90;;;;;;5054310;28;20208;-78
2023/01/14 09:49:21;;;;;;;10.27;1.80;;;7.20;99.90;;;;;;5053568;28;20658;-79
2023/01/14 09:52:07;;;;;;;5.70;1.70;;;7.20;99.90;;;;;;5056623;28;20230;-78
2023/01/14 09:54:48;;;;;;;12.17;2.23;;;7.20;99.90;;;;;;5056672;28;20168;-78
2023/01/14 09:57:28;;;;;;;10.53;2.20;;;7.30;99.90;;;;;;5056400;28;20531;-76
2023/01/14 10:00:24;;;;;;;7.43;1.53;;;7.30;99.90;;;;;;5054478;28;20160;-75
2023/01/14 10:03:03;;;;;;;7.10;1.87;;;7.30;99.90;;;;;;5052917;28;20674;-75
2023/01/14 10:05:33;;;;;;;6.87;1.63;;;7.40;99.90;;;;;;5054203;28;20164;-74
2023/01/14 10:08:02;;;;;;;8.37;2.03;;;7.40;99.90;;;;;;5052817;28;20263;-75
2023/01/14 10:10:41;;;;;;;6.40;1.47;;;7.50;99.90;;;;;;5054216;28;20663;-75
2023/01/14 10:13:19;;;;;;;5.30;1.70;;;7.50;99.90;;;;;;5052826;28;20205;-75
2023/01/14 10:15:47;;;;;;;10.20;1.50;;;7.50;99.90;;;;;;5054095;28;20663;-75
2023/01/14 10:18:20;;;;;;;6.27;2.00;;;7.50;99.90;;;;;;5055338;28;20168;-77
2023/01/14 10:20:51;;;;;;;3.97;1.20;;;7.50;99.90;;;;;;5055129;28;20261;-76
2023/01/14 10:23:22;;;;;;;5.67;1.63;;;7.50;99.90;;;;;;5053774;28;20244;-80
2023/01/14 10:25:50;;;;;;;6.77;1.30;;;7.50;99.90;;;;;;5054765;28;20565;-79
2023/01/14 10:28:20;;;;;;;5.20;1.30;;;7.50;99.90;;;;;;5054660;28;20167;-79
2023/01/14 10:30:47;;;;;;;5.30;1.30;;;7.50;99.90;;;;;;5055031;28;20195;-77
2023/01/14 10:33:15;;;;;;;5.80;1.50;;;7.50;99.90;;;;;;5052374;28;20190;-76
2023/01/14 10:35:48;;;;;;;3.90;1.13;;;7.50;99.90;;;;;;5052536;28;20174;-77
2023/01/14 10:38:20;;;;;;;7.90;2.03;;;7.50;99.90;;;;;;5053865;28;20569;-76
2023/01/14 10:40:46;;;;;;;6.50;1.20;;;7.50;99.90;;;;;;5052173;28;20203;-77
2023/01/14 10:43:31;;;;;;;4.67;1.37;;;7.50;99.90;;;;;;5052138;28;20214;-76
2023/01/14 10:45:57;;;;;;;3.53;1.10;;;7.50;99.90;;;;;;5052175;28;20171;-76
2023/01/14 10:48:25;;;;;;;8.53;1.77;;;7.50;99.90;;;;;;5053698;28;20187;-76
2023/01/14 10:50:51;;;;;;;5.97;1.70;;;7.60;99.90;;;;;;5053344;28;20194;-77
2023/01/14 10:53:24;;;;;;;2.80;1.33;;;7.50;99.90;;;;;;5053338;28;20548;-76
2023/01/14 10:56:01;;;;;;;4.17;1.30;;;7.60;99.90;;;;;;5051422;28;20180;-77
2023/01/14 10:58:34;;;;;;;5.03;1.30;;;7.60;99.90;;;;;;5051942;28;20175;-77
2023/01/14 11:01:07;;;;;;;5.07;1.20;;;7.60;99.90;;;;;;5055483;28;20225;-79
2023/01/14 11:03:48;;;;;;;3.87;1.17;;;7.60;99.90;;;;;;5052804;28;20616;-77
2023/01/14 11:06:16;;;;;;;7.03;1.20;;;7.60;99.90;;;;;;5053177;28;20166;-78
2023/01/14 11:08:50;;;;;;;3.63;1.03;;;7.60;99.90;;;;;;5051792;28;20571;-78
2023/01/14 11:11:17;;;;;;;1.10;0.80;;;7.60;99.90;;;;;;5052977;28;20570;-77
2023/01/14 11:13:46;;;;;;;2.07;0.97;;;7.70;99.90;;;;;;5053012;28;20279;-77
2023/01/14 11:16:29;;;;;;;3.40;0.90;;;7.70;99.90;;;;;;5053027;28;20172;-77
2023/01/14 11:18:57;;;;;;;2.57;1.10;;;7.70;99.90;;;;;;5053270;28;20164;-77
2023/01/14 11:21:24;;;;;;;3.83;1.07;;;7.70;99.90;;;;;;5052773;28;20280;-77
2023/01/14 11:23:55;;;;;;;1.87;0.97;;;7.70;99.90;;;;;;5051597;28;20658;-77
2023/01/14 11:26:27;;;;;;;4.43;0.90;;;7.70;99.90;;;;;;5052851;28;20643;-77
2023/01/14 11:28:59;;;;;;;3.33;0.90;;;7.80;99.90;;;;;;5053304;28;20175;-77
2023/01/14 11:31:33;;;;;;;7.97;0.93;;;7.80;99.90;;;;;;5052854;28;20667;-76
2023/01/14 11:33:59;;;;;;;2.53;0.90;;;7.80;99.90;;;;;;5051533;28;20183;-77
2023/01/14 11:36:27;;;;;;;2.87;1.20;;;7.80;99.90;;;;;;5052779;28;20180;-77
2023/01/14 11:38:56;;;;;;;4.13;1.30;;;7.80;99.90;;;;;;5051509;28;20229;-77
2023/01/14 11:41:39;;;;;;;2.30;0.87;;;7.90;99.90;;;;;;5049717;28;20204;-77
2023/01/14 11:44:21;;;;;;;3.43;1.43;;;7.90;99.90;;;;;;5049032;28;20187;-79
2023/01/14 11:47:02;;;;;;;5.07;1.40;;;7.90;99.90;;;;;;5051633;28;20671;-76
2023/01/14 11:49:28;;;;;;;7.23;1.43;;;7.90;99.90;;;;;;5054545;28;20613;-79
2023/01/14 11:52:01;;;;;;;2.57;0.87;;;8.00;99.90;;;;;;5053728;28;20198;-80
2023/01/14 11:54:38;;;;;;;6.47;1.60;;;8.00;99.90;;;;;;5055132;28;20175;-80
2023/01/14 11:57:15;;;;;;;3.03;0.90;;;8.00;99.90;;;;;;5052404;28;20174;-77
2023/01/14 11:59:42;;;;;;;2.80;1.03;;;8.00;99.90;;;;;;5051234;28;20179;-78
2023/01/14 12:02:21;;;;;;;3.33;1.00;;;8.00;99.90;;;;;;5054863;28;20690;-77
2023/01/14 12:05:14;;;;;;;2.60;1.10;;;8.00;99.90;;;;;;5051328;28;20163;-76
2023/01/14 12:07:44;;;;;;;5.67;1.67;;;8.10;99.90;;;;;;5054522;28;20228;-77
2023/01/14 12:10:19;;;;;;;3.80;1.30;;;8.10;99.90;;;;;;5056235;28;20179;-77
2023/01/14 12:18:41;;;;;;;5.83;1.60;;;8.20;99.90;;;;;;5056805;28;20206;-77
2023/01/14 12:21:06;;;;;;;5.27;1.30;;;8.20;99.90;;;;;;5056014;28;20230;-77
2023/01/14 12:23:44;;;;;;;5.27;1.27;;;8.20;99.90;;;;;;5054783;28;20238;-77
2023/01/14 12:26:18;;;;;;;3.50;1.00;;;8.20;99.90;;;;;;5056410;28;20160;-77
2023/01/14 12:28:50;;;;;;;5.83;1.27;;;8.20;99.90;;;;;;5054920;28;20167;-77
2023/01/14 12:31:33;;;;;;;3.80;1.03;;;8.20;99.90;;;;;;5055938;28;20206;-77
2023/01/14 12:34:04;;;;;;;1.40;0.83;;;8.30;99.90;;;;;;5054749;28;20172;-78
2023/01/14 12:36:40;;;;;;;8.80;1.33;;;8.30;99.90;;;;;;5055957;28;20202;-78
2023/01/14 12:45:41;;;;;;;3.37;1.13;;;8.40;99.90;;;;;;5055924;28;20171;-77
2023/01/14 12:48:08;;;;;;;2.87;0.90;;;8.40;99.90;;;;;;5055727;28;20181;-77
2023/01/14 12:50:36;;;;;;;7.30;1.23;;;8.40;99.90;;;;;;5055547;28;20192;-77
2023/01/14 12:53:03;;;;;;;3.07;1.10;;;8.50;99.90;;;;;;5055556;28;20257;-77
2023/01/14 12:55:37;;;;;;;2.33;1.03;;;8.50;99.90;;;;;;5055614;28;20182;-77
2023/01/14 12:58:05;;;;;;;1.87;0.80;;;8.50;99.90;;;;;;5055523;28;20155;-77
2023/01/14 13:00:34;;;;;;;2.07;0.70;;;8.50;99.90;;;;;;5055371;28;20599;-77
2023/01/14 13:03:04;;;;;;;1.90;1.10;;;8.50;99.90;;;;;;5055536;28;20213;-78
2023/01/14 13:05:35;;;;;;;0.97;0.63;;;8.50;99.90;;;;;;5054110;28;20180;-77
2023/01/14 13:08:07;;;;;;;2.77;0.87;;;8.50;99.90;;;;;;5055331;28;20150;-77
2023/01/14 13:10:36;;;;;;;2.10;0.70;;;8.60;99.90;;;;;;5053834;28;20187;-77
2023/01/14 13:13:04;;;;;;;3.47;1.00;;;8.60;99.90;;;;;;5054050;28;20171;-80
2023/01/14 13:15:35;;;;;;;1.60;0.90;;;8.60;99.90;;;;;;5059015;28;20652;-81
2023/01/14 13:18:25;;;;;;;4.97;1.33;;;8.60;99.90;;;;;;5058207;28;20246;-76
2023/01/14 13:20:52;;;;;;;1.43;0.83;;;8.60;99.90;;;;;;5059898;28;20211;-80
2023/01/14 13:23:37;;;;;;;3.07;0.83;;;8.60;99.90;;;;;;5068016;28;20282;-79
2023/01/14 13:26:17;;;;;;;1.27;0.87;;;8.60;99.90;;;;;;5051687;28;20180;-78
2023/01/14 13:29:14;;;;;;;1.50;0.67;;;8.60;99.90;;;;;;5052220;28;20632;-79
2023/01/14 13:31:40;;;;;;;2.83;1.00;;;8.60;99.90;;;;;;5053102;28;20195;-76
2023/01/14 13:34:21;;;;;;;3.40;1.30;;;8.60;99.90;;;;;;5055231;28;20235;-75
2023/01/14 13:36:56;;;;;;;3.33;0.80;;;8.70;99.90;;;;;;5054798;28;20543;-75
2023/01/14 13:39:22;;;;;;;1.73;0.90;;;8.60;99.90;;;;;;5054740;28;20623;-75
2023/01/14 13:41:50;;;;;;;1.80;1.00;;;8.70;99.90;;;;;;5054662;28;20187;-76
2023/01/14 13:44:27;;;;;;;1.80;0.80;;;8.70;99.90;;;;;;5053417;28;20179;-76
2023/01/14 13:47:35;;;;;;;1.80;1.00;;;8.70;99.90;;;;;;5054989;28;20164;-76
2023/01/14 13:50:05;;;;;;;1.20;0.83;;;8.70;99.90;;;;;;4992960;28;20193;-75